createdAt,value
2019-05-01T00:00:27.066Z,45.00
2019-05-01T00:01:27.084Z,48.30
2019-05-01T00:02:27.103Z,46.90
2019-05-01T00:03:27.062Z,44.90
2019-05-01T00:04:27.016Z,48.60
2019-05-01T00:05:27.031Z,48.20
2019-05-01T00:06:26.994Z,47.30
2019-05-01T00:07:26.989Z,52.40
2019-05-01T00:08:27.025Z,45.80
2019-05-01T00:09:26.964Z,47.40
2019-05-01T00:10:26.973Z,45.10
2019-05-01T00:11:26.953Z,47.50
2019-05-01T00:12:26.935Z,47.00
2019-05-01T00:13:26.940Z,45.10
2019-05-01T00:14:26.918Z,46.30
2019-05-01T00:15:26.973Z,48.00
2019-05-01T00:16:26.896Z,46.10
2019-05-01T00:17:27.896Z,48.60
2019-05-01T00:18:26.893Z,45.90
2019-05-01T00:19:26.855Z,44.90
2019-05-01T00:20:26.844Z,45.80
2019-05-01T00:21:26.852Z,47.20
2019-05-01T00:22:26.829Z,47.00
2019-05-01T00:23:26.915Z,48.30
2019-05-01T00:24:34.541Z,48.00
2019-05-01T00:25:26.876Z,48.00
2019-05-01T00:26:34.450Z,46.90
2019-05-01T00:27:35.726Z,49.10
2019-05-01T00:28:26.933Z,49.50
2019-05-01T00:30:42.580Z,44.70
2019-05-01T00:31:42.508Z,47.60
2019-05-01T00:32:51.407Z,45.60
2019-05-01T00:33:42.499Z,51.10
2019-05-01T00:34:50.225Z,52.10
2019-05-01T00:35:42.454Z,48.70
2019-05-01T00:36:51.737Z,51.30
2019-05-01T00:37:42.420Z,49.70
2019-05-01T00:38:50.019Z,47.60
2019-05-01T00:39:42.453Z,49.30
2019-05-01T00:40:51.306Z,52.50
2019-05-01T00:41:42.395Z,42.10
2019-05-01T00:42:50.055Z,49.20
2019-05-01T00:43:42.386Z,45.50
2019-05-01T00:44:50.068Z,52.40
2019-05-01T00:45:42.348Z,50.40
2019-05-01T00:46:51.267Z,50.10
2019-05-01T00:47:42.379Z,53.80
2019-05-01T00:49:52.215Z,45.90
2019-05-01T00:50:52.039Z,51.30
2019-05-01T00:52:00.956Z,50.30
2019-05-01T00:52:52.031Z,46.70
2019-05-01T00:53:52.006Z,48.90
2019-05-01T00:55:00.646Z,47.30
2019-05-01T00:55:52.023Z,47.20
2019-05-01T00:57:00.687Z,48.20
2019-05-01T00:57:51.971Z,48.30
2019-05-01T00:59:00.570Z,51.20
2019-05-01T00:59:51.982Z,49.80
2019-05-01T01:00:52.016Z,49.70
2019-05-01T01:01:51.933Z,49.40
2019-05-01T01:02:51.921Z,50.70
2019-05-01T01:03:51.925Z,45.00
2019-05-01T01:04:51.930Z,49.70
2019-05-01T01:05:51.940Z,46.90
2019-05-01T01:06:51.866Z,49.60
2019-05-01T01:07:51.858Z,46.60
2019-05-01T01:08:51.842Z,48.00
2019-05-01T01:09:51.840Z,49.40
2019-05-01T01:10:51.834Z,51.30
2019-05-01T01:11:51.831Z,49.90
2019-05-01T01:12:51.819Z,51.40
2019-05-01T01:14:00.425Z,50.00
2019-05-01T01:14:51.778Z,46.80
2019-05-01T01:15:51.768Z,48.60
2019-05-01T01:16:51.794Z,50.60
2019-05-01T01:17:51.741Z,50.20
2019-05-01T01:18:51.735Z,47.70
2019-05-01T01:19:51.721Z,48.10
2019-05-01T01:20:51.727Z,49.50
2019-05-01T01:21:51.704Z,46.70
2019-05-01T01:22:51.713Z,46.80
2019-05-01T01:23:51.715Z,52.70
2019-05-01T01:24:51.664Z,49.20
2019-05-01T01:25:51.659Z,46.70
2019-05-01T01:26:51.652Z,47.60
2019-05-01T01:27:51.662Z,47.00
2019-05-01T01:28:59.179Z,45.40
2019-05-01T01:29:51.617Z,47.70
2019-05-01T01:31:00.155Z,46.00
2019-05-01T01:31:51.593Z,51.30
2019-05-01T01:32:51.622Z,48.70
2019-05-01T01:33:51.574Z,50.90
2019-05-01T01:34:51.565Z,50.10
2019-05-01T01:35:51.555Z,49.00
2019-05-01T01:36:51.541Z,45.30
2019-05-01T01:37:51.532Z,46.40
2019-05-01T01:38:51.538Z,49.40
2019-05-01T01:39:51.513Z,49.70
2019-05-01T01:40:51.505Z,50.10
2019-05-01T01:41:51.501Z,52.50
2019-05-01T01:42:51.494Z,48.40
2019-05-01T01:43:51.486Z,49.00
2019-05-01T01:44:51.461Z,50.90
2019-05-01T01:45:51.444Z,48.60
2019-05-01T01:46:51.433Z,50.20
2019-05-01T01:47:51.429Z,48.40
2019-05-01T01:48:51.458Z,49.30
2019-05-01T01:49:51.409Z,47.60
2019-05-01T01:50:51.395Z,52.50
2019-05-01T01:51:51.379Z,46.90
2019-05-01T01:52:51.373Z,52.00
2019-05-01T01:53:51.354Z,50.20
2019-05-01T01:54:51.369Z,50.00
2019-05-01T01:55:51.334Z,47.70
2019-05-01T01:56:51.329Z,51.00
2019-05-01T01:57:51.315Z,50.90
2019-05-01T01:58:51.303Z,58.40
2019-05-01T01:59:51.304Z,49.40
2019-05-01T02:00:51.312Z,49.20
2019-05-01T02:01:51.280Z,49.80
2019-05-01T02:02:51.260Z,50.00
2019-05-01T02:03:51.254Z,48.30
2019-05-01T02:04:51.250Z,50.00
2019-05-01T02:05:51.258Z,58.10
2019-05-01T02:06:51.221Z,50.10
2019-05-01T02:07:51.208Z,53.80
2019-05-01T02:08:56.627Z,51.50
2019-05-01T02:09:52.180Z,48.70
2019-05-01T02:10:51.185Z,48.90
2019-05-01T02:11:51.185Z,49.80
2019-05-01T02:12:51.152Z,49.20
2019-05-01T02:13:51.143Z,51.40
2019-05-01T02:14:51.124Z,50.70
2019-05-01T02:15:51.120Z,51.30
2019-05-01T02:16:51.130Z,50.20
2019-05-01T02:17:51.101Z,51.50
2019-05-01T02:18:51.088Z,53.50
2019-05-01T02:19:51.081Z,51.00
2019-05-01T02:20:51.070Z,48.10
2019-05-01T02:21:51.085Z,48.40
2019-05-01T02:22:51.051Z,51.20
2019-05-01T02:23:51.043Z,47.90
2019-05-01T02:24:51.047Z,53.20
2019-05-01T02:25:51.042Z,49.60
2019-05-01T02:26:51.004Z,49.10
2019-05-01T02:27:51.021Z,49.80
2019-05-01T02:28:50.980Z,52.50
2019-05-01T02:29:50.974Z,49.10
2019-05-01T02:30:50.960Z,49.80
2019-05-01T02:31:50.953Z,53.20
2019-05-01T02:32:51.030Z,51.80
2019-05-01T02:33:58.590Z,49.30
2019-05-01T02:34:50.924Z,53.40
2019-05-01T02:35:58.634Z,53.00
2019-05-01T02:36:50.959Z,54.90
2019-05-01T02:37:58.858Z,53.80
2019-05-01T02:38:50.890Z,54.00
2019-05-01T02:39:58.515Z,51.40
2019-05-01T02:40:50.870Z,51.70
2019-05-01T02:41:58.487Z,54.40
2019-05-01T02:42:50.937Z,49.30
2019-05-01T02:43:59.963Z,50.60
2019-05-01T02:44:50.869Z,53.30
2019-05-01T02:47:00.649Z,51.60
2019-05-01T02:48:08.198Z,51.10
2019-05-01T02:49:00.615Z,58.50
2019-05-01T02:51:10.490Z,49.10
2019-05-01T02:52:17.898Z,50.70
2019-05-01T02:53:10.308Z,50.60
2019-05-01T02:55:21.113Z,51.30
2019-05-01T02:56:21.040Z,52.40
2019-05-01T02:57:28.621Z,50.50
2019-05-01T02:58:21.088Z,48.10
2019-05-01T03:00:39.738Z,52.40
2019-05-01T03:02:50.484Z,52.60
2019-05-01T03:03:50.452Z,49.70
2019-05-01T03:04:58.065Z,52.70
2019-05-01T03:05:50.426Z,49.10
2019-05-01T03:06:59.450Z,53.70
2019-05-01T03:07:50.443Z,49.90
2019-05-01T03:08:50.379Z,51.20
2019-05-01T03:09:50.331Z,56.00
2019-05-01T03:10:50.318Z,50.20
2019-05-01T03:11:50.309Z,51.90
2019-05-01T03:12:50.321Z,54.40
2019-05-01T03:13:50.324Z,50.70
2019-05-01T03:14:50.319Z,51.30
2019-05-01T03:15:57.964Z,50.40
2019-05-01T03:16:50.345Z,51.70
2019-05-01T03:17:50.266Z,51.40
2019-05-01T03:18:59.000Z,49.30
2019-05-01T03:19:50.231Z,52.30
2019-05-01T03:20:58.836Z,52.80
2019-05-01T03:21:50.225Z,52.40
2019-05-01T03:23:00.441Z,52.20
2019-05-01T03:23:50.216Z,52.10
2019-05-01T03:24:58.837Z,53.40
2019-05-01T03:25:50.167Z,58.00
2019-05-01T03:28:10.316Z,57.70
2019-05-01T03:29:19.094Z,52.10
2019-05-01T03:30:10.065Z,55.60
2019-05-01T03:31:19.000Z,54.60
2019-05-01T03:32:17.973Z,55.00
2019-05-01T03:34:32.894Z,56.70
2019-05-01T03:35:40.318Z,50.00
2019-05-01T03:36:32.670Z,53.80
2019-05-01T03:37:40.299Z,52.40
2019-05-01T03:38:32.634Z,55.60
2019-05-01T03:40:50.099Z,53.20
2019-05-01T03:43:00.787Z,52.80
2019-05-01T03:44:08.377Z,52.20
2019-05-01T03:45:00.736Z,56.80
2019-05-01T03:46:09.292Z,58.60
2019-05-01T03:47:00.674Z,55.50
2019-05-01T03:48:10.554Z,55.90
2019-05-01T03:49:00.679Z,54.30
2019-05-01T03:51:12.770Z,49.30
2019-05-01T03:52:21.371Z,51.20
2019-05-01T03:53:12.680Z,51.50
2019-05-01T03:54:20.325Z,52.30
2019-05-01T03:55:12.743Z,46.60
2019-05-01T03:56:21.546Z,52.40
2019-05-01T03:57:12.926Z,55.60
2019-05-01T03:58:20.277Z,51.60
2019-05-01T03:59:12.687Z,49.80
2019-05-01T04:00:20.301Z,50.70
2019-05-01T04:01:12.650Z,53.00
2019-05-01T04:02:33.018Z,56.80
2019-05-01T04:03:13.581Z,52.70
2019-05-01T04:04:20.278Z,53.20
2019-05-01T04:05:12.578Z,51.80
2019-05-01T04:06:12.590Z,49.70
2019-05-01T04:07:21.215Z,53.20
2019-05-01T04:08:12.533Z,58.90
2019-05-01T04:09:20.245Z,58.30
2019-05-01T04:10:12.542Z,57.40
2019-05-01T04:11:20.171Z,56.90
2019-05-01T04:12:12.518Z,60.40
2019-05-01T04:13:20.475Z,62.50
2019-05-01T04:14:12.483Z,53.90
2019-05-01T04:15:21.066Z,56.10
2019-05-01T04:16:12.455Z,55.20
2019-05-01T04:17:12.455Z,61.20
2019-05-01T04:18:12.414Z,61.60
2019-05-01T04:19:12.420Z,56.30
2019-05-01T04:20:12.397Z,61.80
2019-05-01T04:21:12.385Z,57.80
2019-05-01T04:22:12.387Z,58.50
2019-05-01T04:23:12.373Z,63.80
2019-05-01T04:24:12.405Z,69.50
2019-05-01T04:25:12.351Z,65.30
2019-05-01T04:26:12.334Z,70.20
2019-05-01T04:27:12.462Z,70.30
2019-05-01T04:28:12.345Z,68.40
2019-05-01T04:29:12.439Z,74.30
2019-05-01T04:30:12.330Z,73.60
2019-05-01T04:31:12.340Z,75.70
2019-05-01T04:32:12.445Z,87.40
2019-05-01T04:33:12.305Z,92.20
2019-05-01T04:34:12.265Z,99.50
2019-05-01T04:35:12.371Z,102.90
2019-05-01T04:36:12.298Z,108.90
2019-05-01T04:37:12.366Z,119.00
2019-05-01T04:38:12.315Z,108.80
2019-05-01T04:39:12.219Z,102.40
2019-05-01T04:40:12.336Z,117.10
2019-05-01T04:41:12.200Z,125.20
2019-05-01T04:42:12.266Z,130.60
2019-05-01T04:43:12.261Z,104.30
2019-05-01T04:44:12.167Z,120.40
2019-05-01T04:45:12.243Z,118.80
2019-05-01T04:46:12.232Z,113.00
2019-05-01T04:47:12.227Z,128.00
2019-05-01T04:48:12.106Z,115.70
2019-05-01T04:49:12.158Z,147.40
2019-05-01T04:50:12.178Z,145.40
2019-05-01T04:51:12.109Z,146.50
2019-05-01T04:52:12.113Z,136.60
2019-05-01T04:53:12.142Z,165.40
2019-05-01T04:54:12.086Z,159.00
2019-05-01T04:55:12.160Z,154.10
2019-05-01T04:56:12.035Z,169.10
2019-05-01T04:57:12.028Z,146.40
2019-05-01T04:58:12.021Z,142.80
2019-05-01T04:59:12.077Z,139.90
2019-05-01T05:00:12.116Z,157.40
2019-05-01T05:01:12.037Z,169.70
2019-05-01T05:02:11.987Z,108.40
2019-05-01T05:03:12.049Z,165.80
2019-05-01T05:04:12.021Z,167.70
2019-05-01T05:05:11.997Z,165.40
2019-05-01T05:06:11.977Z,158.50
2019-05-01T05:07:11.958Z,166.30
2019-05-01T05:08:11.918Z,161.60
2019-05-01T05:09:11.924Z,165.60
2019-05-01T05:10:11.902Z,139.00
2019-05-01T05:11:11.974Z,190.90
2019-05-01T05:12:12.019Z,171.00
2019-05-01T05:13:11.997Z,130.20
2019-05-01T05:14:11.910Z,185.10
2019-05-01T05:15:11.931Z,171.80
2019-05-01T05:16:11.879Z,161.30
2019-05-01T05:17:11.944Z,200.00
2019-05-01T05:18:11.800Z,198.40
2019-05-01T05:19:11.822Z,193.80
2019-05-01T05:20:11.931Z,205.80
2019-05-01T05:21:11.807Z,189.10
2019-05-01T05:22:11.893Z,173.30
2019-05-01T05:23:11.777Z,168.10
2019-05-01T05:24:11.732Z,158.30
2019-05-01T05:25:11.802Z,208.60
2019-05-01T05:26:11.804Z,188.70
2019-05-01T05:27:11.701Z,188.90
2019-05-01T05:28:11.890Z,163.90
2019-05-01T05:29:11.760Z,175.70
2019-05-01T05:30:11.663Z,173.40
2019-05-01T05:31:11.758Z,198.00
2019-05-01T05:32:11.683Z,217.60
2019-05-01T05:33:18.165Z,183.70
2019-05-01T05:34:12.766Z,122.90
2019-05-01T05:35:11.634Z,184.10
2019-05-01T05:36:11.615Z,182.10
2019-05-01T05:37:11.641Z,175.30
2019-05-01T05:38:11.646Z,143.80
2019-05-01T05:39:11.727Z,175.00
2019-05-01T05:40:11.587Z,188.90
2019-05-01T05:41:11.615Z,188.10
2019-05-01T05:42:11.570Z,169.20
2019-05-01T05:43:11.522Z,179.80
2019-05-01T05:44:11.628Z,157.00
2019-05-01T05:45:11.551Z,165.70
2019-05-01T05:46:11.695Z,179.70
2019-05-01T05:47:21.165Z,174.90
2019-05-01T05:48:11.469Z,169.70
2019-05-01T05:49:11.511Z,194.40
2019-05-01T05:50:11.513Z,220.70
2019-05-01T05:51:11.472Z,162.30
2019-05-01T05:52:11.435Z,164.50
2019-05-01T05:53:11.471Z,192.20
2019-05-01T05:54:11.449Z,185.70
2019-05-01T05:55:11.395Z,186.90
2019-05-01T05:56:11.474Z,217.30
2019-05-01T05:57:11.414Z,174.60
2019-05-01T05:58:11.394Z,183.50
2019-05-01T05:59:11.411Z,185.90
2019-05-01T06:00:11.356Z,172.60
2019-05-01T06:01:11.343Z,187.50
2019-05-01T06:02:11.373Z,207.40
2019-05-01T06:03:11.328Z,188.90
2019-05-01T06:04:11.402Z,269.40
2019-05-01T06:05:11.466Z,188.40
2019-05-01T06:06:11.303Z,195.20
2019-05-01T06:07:11.365Z,204.50
2019-05-01T06:08:11.368Z,213.80
2019-05-01T06:09:14.034Z,182.90
2019-05-01T06:10:11.384Z,184.30
2019-05-01T06:11:11.322Z,198.10
2019-05-01T06:12:11.263Z,206.40
2019-05-01T06:13:11.295Z,165.30
2019-05-01T06:14:11.230Z,176.00
2019-05-01T06:15:11.241Z,297.40
2019-05-01T06:16:27.214Z,120.90
2019-05-01T06:17:11.210Z,199.70
2019-05-01T06:18:11.238Z,177.80
2019-05-01T06:19:14.601Z,94.50
2019-05-01T06:20:12.145Z,175.20
2019-05-01T06:21:12.924Z,222.10
2019-05-01T06:22:11.674Z,128.60
2019-05-01T06:23:11.076Z,163.60
2019-05-01T06:24:11.081Z,148.00
2019-05-01T06:25:21.569Z,144.80
2019-05-01T06:26:12.057Z,127.20
2019-05-01T06:27:13.671Z,167.60
2019-05-01T06:28:24.630Z,158.50
2019-05-01T06:29:12.045Z,177.30
2019-05-01T06:30:18.584Z,212.60
2019-05-01T06:31:11.009Z,151.00
2019-05-01T06:32:18.555Z,148.90
2019-05-01T06:33:11.308Z,138.60
2019-05-01T06:34:10.977Z,145.20
2019-05-01T06:35:10.983Z,140.50
2019-05-01T06:36:13.274Z,158.60
2019-05-01T06:37:10.936Z,153.00
2019-05-01T06:38:10.928Z,164.40
2019-05-01T06:39:11.989Z,164.60
2019-05-01T06:40:10.904Z,178.70
2019-05-01T06:41:10.932Z,131.60
2019-05-01T06:42:15.233Z,168.60
2019-05-01T06:43:11.886Z,186.70
2019-05-01T06:44:10.861Z,157.10
2019-05-01T06:45:13.042Z,149.10
2019-05-01T06:46:11.863Z,158.00
2019-05-01T06:47:10.834Z,163.50
2019-05-01T06:48:14.190Z,156.20
2019-05-01T06:49:11.810Z,188.60
2019-05-01T06:50:10.794Z,202.10
2019-05-01T06:51:13.046Z,146.40
2019-05-01T06:52:11.803Z,140.90
2019-05-01T06:53:10.770Z,98.80
2019-05-01T06:54:16.123Z,168.70
2019-05-01T06:55:11.745Z,203.90
2019-05-01T06:56:10.775Z,187.90
2019-05-01T06:57:10.728Z,189.30
2019-05-01T06:58:14.795Z,169.60
2019-05-01T06:59:11.710Z,161.90
2019-05-01T07:00:10.695Z,171.70
2019-05-01T07:01:13.839Z,177.90
2019-05-01T07:02:11.673Z,175.20
2019-05-01T07:03:11.664Z,180.10
2019-05-01T07:04:10.666Z,169.80
2019-05-01T07:05:14.699Z,188.00
2019-05-01T07:06:14.354Z,181.60
2019-05-01T07:07:24.669Z,198.60
2019-05-01T07:08:23.968Z,194.30
2019-05-01T07:09:12.201Z,165.20
2019-05-01T07:10:10.586Z,155.00
2019-05-01T07:11:10.944Z,169.10
2019-05-01T07:12:10.567Z,160.40
2019-05-01T07:13:19.184Z,178.30
2019-05-01T07:14:11.217Z,143.40
2019-05-01T07:15:11.528Z,152.10
2019-05-01T07:16:10.551Z,157.40
2019-05-01T07:17:13.572Z,150.10
2019-05-01T07:18:11.580Z,136.70
2019-05-01T07:19:10.505Z,162.50
2019-05-01T07:20:11.910Z,140.30
2019-05-01T07:21:11.487Z,143.00
2019-05-01T07:22:10.489Z,144.60
2019-05-01T07:23:12.689Z,151.30
2019-05-01T07:24:11.437Z,135.40
2019-05-01T07:25:10.426Z,151.50
2019-05-01T07:26:13.739Z,169.50
2019-05-01T07:27:10.407Z,158.10
2019-05-01T07:28:10.422Z,139.10
2019-05-01T07:29:11.077Z,150.70
2019-05-01T07:30:10.372Z,164.60
2019-05-01T07:31:10.369Z,164.00
2019-05-01T07:32:10.363Z,162.50
2019-05-01T07:33:12.018Z,149.60
2019-05-01T07:34:16.673Z,150.90
2019-05-01T07:35:11.319Z,156.60
2019-05-01T07:36:15.396Z,155.60
2019-05-01T07:37:11.303Z,141.60
2019-05-01T07:38:10.284Z,142.90
2019-05-01T07:39:14.759Z,161.60
2019-05-01T07:40:11.273Z,155.10
2019-05-01T07:41:12.371Z,169.80
2019-05-01T07:42:12.386Z,140.00
2019-05-01T07:43:10.233Z,163.10
2019-05-01T07:44:10.252Z,179.30
2019-05-01T07:45:10.219Z,176.20
2019-05-01T07:46:13.707Z,174.10
2019-05-01T07:47:11.200Z,162.50
2019-05-01T07:48:10.184Z,160.90
2019-05-01T07:49:12.984Z,178.40
2019-05-01T07:50:11.162Z,170.60
2019-05-01T07:51:10.226Z,164.10
2019-05-01T07:52:12.576Z,135.70
2019-05-01T07:53:11.140Z,141.70
2019-05-01T07:54:10.140Z,180.40
2019-05-01T07:55:13.026Z,147.00
2019-05-01T07:56:11.099Z,162.30
2019-05-01T07:57:10.082Z,171.10
2019-05-01T07:58:15.226Z,172.60
2019-05-01T07:59:11.125Z,172.50
2019-05-01T08:00:10.101Z,172.50
2019-05-01T08:01:13.072Z,171.50
2019-05-01T08:02:11.034Z,184.30
2019-05-01T08:03:10.045Z,159.10
2019-05-01T08:04:13.877Z,161.70
2019-05-01T08:05:11.759Z,178.70
2019-05-01T08:06:21.440Z,177.10
2019-05-01T08:07:10.980Z,186.40
2019-05-01T08:08:09.994Z,167.10
2019-05-01T08:09:11.329Z,162.10
2019-05-01T08:10:10.967Z,169.70
2019-05-01T08:11:10.374Z,163.60
2019-05-01T08:12:09.925Z,169.90
2019-05-01T08:13:09.914Z,180.00
2019-05-01T08:14:11.941Z,139.90
2019-05-01T08:15:10.915Z,144.00
2019-05-01T08:16:09.882Z,172.40
2019-05-01T08:17:12.812Z,171.40
2019-05-01T08:18:10.860Z,168.40
2019-05-01T08:19:09.853Z,160.20
2019-05-01T08:20:14.697Z,150.90
2019-05-01T08:21:10.826Z,148.60
2019-05-01T08:22:09.817Z,177.40
2019-05-01T08:23:12.154Z,158.90
2019-05-01T08:24:09.798Z,169.40
2019-05-01T08:25:09.787Z,157.10
2019-05-01T08:26:10.314Z,146.90
2019-05-01T08:27:09.764Z,138.20
2019-05-01T08:28:09.752Z,143.40
2019-05-01T08:29:09.746Z,145.20
2019-05-01T08:30:12.864Z,135.60
2019-05-01T08:31:11.367Z,131.00
2019-05-01T08:32:09.715Z,134.80
2019-05-01T08:33:14.162Z,135.40
2019-05-01T08:34:10.689Z,140.70
2019-05-01T08:35:09.680Z,142.30
2019-05-01T08:36:11.683Z,144.00
2019-05-01T08:37:09.679Z,139.10
2019-05-01T08:38:09.647Z,138.10
2019-05-01T08:39:10.810Z,143.40
2019-05-01T08:40:09.637Z,133.50
2019-05-01T08:41:09.617Z,128.60
2019-05-01T08:42:09.627Z,137.10
2019-05-01T08:43:09.593Z,147.70
2019-05-01T08:44:09.585Z,131.30
2019-05-01T08:45:09.579Z,139.00
2019-05-01T08:46:11.900Z,147.80
2019-05-01T08:47:10.578Z,142.40
2019-05-01T08:48:09.543Z,151.40
2019-05-01T08:49:11.442Z,155.60
2019-05-01T08:50:09.520Z,142.60
2019-05-01T08:51:09.576Z,147.10
2019-05-01T08:52:12.922Z,146.00
2019-05-01T08:53:09.675Z,144.40
2019-05-01T08:54:09.500Z,152.80
2019-05-01T08:55:10.848Z,156.40
2019-05-01T08:56:09.838Z,145.50
2019-05-01T08:57:09.448Z,144.30
2019-05-01T08:58:13.922Z,131.80
2019-05-01T08:59:09.424Z,103.50
2019-05-01T09:00:09.415Z,133.70
2019-05-01T09:01:10.887Z,125.00
2019-05-01T09:02:10.433Z,126.10
2019-05-01T09:03:13.595Z,131.60
2019-05-01T09:04:13.023Z,120.40
2019-05-01T09:05:27.544Z,121.20
2019-05-01T09:06:10.426Z,107.30
2019-05-01T09:07:09.344Z,137.80
2019-05-01T09:08:09.375Z,153.60
2019-05-01T09:09:10.323Z,149.40
2019-05-01T09:10:09.425Z,137.50
2019-05-01T09:11:09.825Z,160.00
2019-05-01T09:12:11.737Z,157.40
2019-05-01T09:13:09.302Z,150.50
2019-05-01T09:14:09.274Z,147.60
2019-05-01T09:15:12.681Z,167.30
2019-05-01T09:16:10.248Z,165.40
2019-05-01T09:17:09.240Z,160.40
2019-05-01T09:18:09.247Z,152.90
2019-05-01T09:19:09.218Z,153.30
2019-05-01T09:20:09.209Z,163.70
2019-05-01T09:21:09.191Z,154.60
2019-05-01T09:22:09.180Z,160.10
2019-05-01T09:23:09.427Z,155.80
2019-05-01T09:24:09.163Z,149.10
2019-05-01T09:25:09.149Z,140.40
2019-05-01T09:26:14.794Z,150.60
2019-05-01T09:27:10.130Z,150.50
2019-05-01T09:28:09.138Z,157.40
2019-05-01T09:29:11.075Z,164.00
2019-05-01T09:30:10.099Z,155.00
2019-05-01T09:31:09.083Z,162.40
2019-05-01T09:32:10.278Z,159.20
2019-05-01T09:33:09.086Z,169.80
2019-05-01T09:34:09.569Z,161.10
2019-05-01T09:35:15.558Z,169.90
2019-05-01T09:36:10.032Z,168.80
2019-05-01T09:37:09.030Z,166.50
2019-05-01T09:38:09.036Z,165.70
2019-05-01T09:39:09.006Z,152.40
2019-05-01T09:40:10.292Z,164.30
2019-05-01T09:41:08.982Z,152.70
2019-05-01T09:42:08.975Z,162.50
2019-05-01T09:43:08.975Z,154.60
2019-05-01T09:44:10.694Z,171.60
2019-05-01T09:45:08.938Z,160.20
2019-05-01T09:46:08.929Z,147.60
2019-05-01T09:47:08.914Z,153.50
2019-05-01T09:48:08.905Z,170.40
2019-05-01T09:49:08.912Z,158.10
2019-05-01T09:50:08.899Z,132.20
2019-05-01T09:51:08.872Z,143.40
2019-05-01T09:52:08.867Z,142.50
2019-05-01T09:53:08.864Z,151.40
2019-05-01T09:54:09.824Z,146.20
2019-05-01T09:55:08.831Z,149.50
2019-05-01T09:56:09.163Z,156.60
2019-05-01T09:57:08.817Z,155.50
2019-05-01T09:58:08.801Z,142.30
2019-05-01T09:59:12.597Z,149.00
2019-05-01T10:00:09.777Z,143.40
2019-05-01T10:01:08.766Z,147.40
2019-05-01T10:02:09.151Z,147.80
2019-05-01T10:03:13.192Z,142.50
2019-05-01T10:04:09.759Z,152.60
2019-05-01T10:05:08.726Z,150.80
2019-05-01T10:06:08.713Z,149.90
2019-05-01T10:07:08.705Z,147.20
2019-05-01T10:08:09.343Z,119.40
2019-05-01T10:09:11.990Z,150.20
2019-05-01T10:10:09.672Z,159.90
2019-05-01T10:11:08.665Z,156.10
2019-05-01T10:12:11.622Z,139.00
2019-05-01T10:13:08.639Z,141.60
2019-05-01T10:14:08.654Z,144.80
2019-05-01T10:15:08.622Z,138.70
2019-05-01T10:16:08.613Z,156.40
2019-05-01T10:17:08.595Z,152.40
2019-05-01T10:18:08.588Z,153.10
2019-05-01T10:19:08.577Z,154.00
2019-05-01T10:20:08.609Z,156.10
2019-05-01T10:21:08.558Z,160.20
2019-05-01T10:22:08.552Z,163.90
2019-05-01T10:23:13.043Z,160.60
2019-05-01T10:24:09.521Z,140.10
2019-05-01T10:25:12.263Z,118.50
2019-05-01T10:26:08.504Z,140.40
2019-05-01T10:27:08.493Z,158.80
2019-05-01T10:28:12.713Z,160.60
2019-05-01T10:29:09.475Z,145.50
2019-05-01T10:30:08.481Z,157.50
2019-05-01T10:31:11.957Z,145.60
2019-05-01T10:32:08.439Z,151.80
2019-05-01T10:33:08.430Z,158.10
2019-05-01T10:34:09.161Z,159.40
2019-05-01T10:35:08.446Z,157.30
2019-05-01T10:36:12.829Z,157.90
2019-05-01T10:37:09.385Z,130.70
2019-05-01T10:38:09.340Z,153.90
2019-05-01T10:39:08.374Z,153.60
2019-05-01T10:40:08.365Z,157.00
2019-05-01T10:41:09.262Z,163.50
2019-05-01T10:42:08.336Z,151.50
2019-05-01T10:43:08.325Z,159.80
2019-05-01T10:44:08.323Z,154.40
2019-05-01T10:45:08.311Z,126.60
2019-05-01T10:46:08.316Z,144.60
2019-05-01T10:47:08.289Z,150.50
2019-05-01T10:48:08.282Z,143.90
2019-05-01T10:49:08.257Z,142.20
2019-05-01T10:50:08.257Z,135.00
2019-05-01T10:51:08.268Z,142.70
2019-05-01T10:52:14.215Z,138.90
2019-05-01T10:53:09.296Z,124.60
2019-05-01T10:54:08.221Z,148.70
2019-05-01T10:55:08.217Z,147.00
2019-05-01T10:56:08.200Z,143.70
2019-05-01T10:57:08.183Z,146.80
2019-05-01T10:58:12.758Z,148.10
2019-05-01T10:59:09.152Z,152.60
2019-05-01T11:00:08.142Z,147.70
2019-05-01T11:01:08.162Z,148.90
2019-05-01T11:02:08.124Z,145.90
2019-05-01T11:03:08.124Z,153.80
2019-05-01T11:04:08.100Z,146.20
2019-05-01T11:05:08.098Z,121.10
2019-05-01T11:06:08.098Z,122.10
2019-05-01T11:07:08.078Z,140.20
2019-05-01T11:08:08.063Z,149.70
2019-05-01T11:09:08.049Z,155.60
2019-05-01T11:10:08.035Z,154.40
2019-05-01T11:11:08.044Z,161.50
2019-05-01T11:12:08.018Z,114.10
2019-05-01T11:13:08.055Z,149.80
2019-05-01T11:14:08.032Z,123.80
2019-05-01T11:15:08.224Z,154.40
2019-05-01T11:16:08.008Z,143.40
2019-05-01T11:17:07.974Z,154.00
2019-05-01T11:18:07.958Z,154.30
2019-05-01T11:19:07.938Z,154.40
2019-05-01T11:20:07.935Z,148.10
2019-05-01T11:21:07.964Z,150.00
2019-05-01T11:22:07.912Z,152.30
2019-05-01T11:23:07.901Z,142.00
2019-05-01T11:24:07.905Z,124.70
2019-05-01T11:25:07.878Z,157.50
2019-05-01T11:26:07.905Z,155.80
2019-05-01T11:27:07.878Z,156.20
2019-05-01T11:28:07.876Z,157.70
2019-05-01T11:29:07.859Z,158.70
2019-05-01T11:30:07.835Z,160.40
2019-05-01T11:31:07.835Z,163.50
2019-05-01T11:32:07.807Z,158.40
2019-05-01T11:33:07.788Z,160.80
2019-05-01T11:34:07.809Z,146.40
2019-05-01T11:35:07.840Z,139.40
2019-05-01T11:36:09.782Z,147.50
2019-05-01T11:37:07.787Z,141.40
2019-05-01T11:38:07.748Z,140.80
2019-05-01T11:39:07.791Z,138.70
2019-05-01T11:40:07.722Z,139.30
2019-05-01T11:41:07.725Z,144.20
2019-05-01T11:42:07.700Z,142.10
2019-05-01T11:43:07.683Z,145.80
2019-05-01T11:44:07.675Z,139.60
2019-05-01T11:45:07.669Z,139.80
2019-05-01T11:46:07.663Z,142.60
2019-05-01T11:47:07.664Z,144.20
2019-05-01T11:48:07.628Z,131.30
2019-05-01T11:49:07.617Z,135.40
2019-05-01T11:50:07.607Z,133.40
2019-05-01T11:51:07.606Z,135.20
2019-05-01T11:52:07.606Z,129.00
2019-05-01T11:53:07.575Z,127.60
2019-05-01T11:54:07.591Z,122.70
2019-05-01T11:55:07.591Z,126.70
2019-05-01T11:56:07.544Z,142.70
2019-05-01T11:57:07.557Z,142.50
2019-05-01T11:58:07.523Z,134.90
2019-05-01T11:59:07.511Z,140.70
2019-05-01T12:00:07.501Z,137.40
2019-05-01T12:01:07.497Z,132.70
2019-05-01T12:02:07.499Z,139.80
2019-05-01T12:03:07.471Z,135.40
2019-05-01T12:04:07.466Z,132.30
2019-05-01T12:05:07.547Z,136.40
2019-05-01T12:06:07.450Z,135.80
2019-05-01T12:07:07.448Z,133.10
2019-05-01T12:08:07.417Z,133.80
2019-05-01T12:09:07.406Z,144.70
2019-05-01T12:10:07.400Z,122.20
2019-05-01T12:11:07.388Z,139.20
2019-05-01T12:12:07.396Z,137.70
2019-05-01T12:13:07.365Z,130.40
2019-05-01T12:14:07.352Z,128.10
2019-05-01T12:15:07.348Z,117.00
2019-05-01T12:16:07.336Z,119.20
2019-05-01T12:17:07.341Z,123.00
2019-05-01T12:18:07.311Z,117.80
2019-05-01T12:19:07.313Z,114.70
2019-05-01T12:20:07.306Z,113.20
2019-05-01T12:21:07.321Z,116.50
2019-05-01T12:22:07.270Z,116.10
2019-05-01T12:23:07.293Z,117.90
2019-05-01T12:24:07.261Z,118.70
2019-05-01T12:25:07.877Z,117.00
2019-05-01T12:26:07.231Z,120.40
2019-05-01T12:27:07.224Z,112.50
2019-05-01T12:28:07.222Z,115.10
2019-05-01T12:29:07.192Z,116.20
2019-05-01T12:30:07.192Z,108.20
2019-05-01T12:31:07.171Z,103.80
2019-05-01T12:32:07.162Z,108.80
2019-05-01T12:33:07.171Z,111.50
2019-05-01T12:34:07.146Z,110.50
2019-05-01T12:35:07.129Z,114.90
2019-05-01T12:36:07.121Z,110.60
2019-05-01T12:37:07.114Z,121.00
2019-05-01T12:38:07.120Z,117.80
2019-05-01T12:39:07.174Z,108.30
2019-05-01T12:40:07.080Z,121.20
2019-05-01T12:41:07.078Z,120.20
2019-05-01T12:42:07.080Z,118.90
2019-05-01T12:43:07.066Z,115.90
2019-05-01T12:44:07.035Z,122.70
2019-05-01T12:45:07.031Z,114.40
2019-05-01T12:46:07.014Z,114.30
2019-05-01T12:47:07.004Z,114.00
2019-05-01T12:48:07.098Z,107.50
2019-05-01T12:49:07.882Z,112.60
2019-05-01T12:50:06.972Z,112.60
2019-05-01T12:51:06.967Z,111.60